Date,TemperatureHighF,TemperatureAvgF,TemperatureLowF,DewpointHighF,DewpointAvgF,DewpointLowF,HumidityHigh,HumidityAvg,HumidityLow,PressureMaxIn,PressureMinIn,WindSpeedMaxMPH,WindSpeedAvgMPH,GustSpeedMaxMPH,PrecipitationSumIn
2013-6-1,94,78,65,71,66,63,95,69,43,29.94,29.75,9,2,17,0.00
2013-6-2,91,74,63,71,67,62,99,82,51,29.79,29.61,11,2,21,0.86
2013-6-3,77,66,57,64,56,39,99,73,44,29.88,29.77,8,2,17,0.01
2013-6-4,70,58,48,52,46,39,82,63,50,30.11,29.87,8,2,14,0.00
2013-6-5,75,60,46,52,48,39,93,68,30,30.22,30.08,4,1,4,0.00
2013-6-6,79,62,53,56,51,47,97,70,38,30.17,30.04,9,1,16,0.09
2013-6-7,56,54,52,55,53,49,98,95,83,30.06,29.85,10,1,14,0.66
2013-6-8,62,57,52,60,56,52,99,97,93,30.03,29.75,3,0,4,0.21
2013-6-9,81,65,57,62,57,53,99,78,42,30.17,30.02,8,1,11,0.00
2013-6-10,76,63,53,62,56,52,99,82,46,30.19,29.92,6,1,9,0.15
2013-6-11,63,58,56,60,58,56,99,98,91,29.92,29.57,6,1,8,0.91
2013-6-12,69,59,54,61,56,53,99,90,67,29.85,29.59,6,2,12,0.06
2013-6-13,68,59,51,59,55,50,99,88,67,29.83,29.69,7,1,9,0.08
2013-6-14,76,63,54,64,56,53,99,80,49,29.85,29.69,6,1,9,0.00
2013-6-15,80,65,49,55,50,43,97,63,33,29.97,29.85,7,1,11,0.00
2013-6-16,77,62,51,63,55,47,96,80,51,29.93,29.69,8,1,15,0.08
2013-6-17,76,64,54,68,61,54,99,91,61,29.91,29.78,7,1,14,0.15
2013-6-18,68,59,53,60,56,52,99,92,70,30.00,29.90,4,0,8,0.11
2013-6-19,72,59,45,53,48,42,99,73,36,30.18,29.92,5,1,8,0.01
2013-6-20,81,63,46,54,49,43,91,64,26,30.26,30.15,5,1,9,0.00
2013-6-21,86,69,53,61,55,50,93,66,33,30.24,30.16,7,1,8,0.00
2013-6-22,85,71,59,71,62,54,96,76,54,30.19,30.03,7,1,10,0.00
2013-6-23,90,74,66,74,69,65,99,86,55,30.08,29.88,8,1,12,0.91
2013-6-24,88,75,65,75,70,64,99,86,62,29.99,29.88,8,1,14,0.07
2013-6-25,92,74,64,72,68,63,99,85,48,29.93,29.75,8,1,14,0.20
2013-6-26,78,70,66,74,69,66,99,95,84,29.82,29.75,4,0,8,0.22
2013-6-27,90,75,66,73,68,65,99,81,51,29.83,29.69,8,1,12,0.00
2013-6-28,88,73,63,68,65,61,97,79,46,29.70,29.44,13,2,27,0.43
2013-6-29,88,74,65,68,66,62,99,77,45,29.67,29.48,11,1,17,0.02
2013-6-30,88,75,64,72,66,62,97,76,48,29.92,29.67,5,1,10,0.00